sensor_id;sensor_type;location;lat;lon;timestamp;pressure;altitude;pressure_sealevel;temperature;humidity
63493;BME280;49638;47.526;10.028;2023-04-20T00:00:12;91341.19;;;2.75;89.71
63493;BME280;49638;47.526;10.028;2023-04-20T00:03:14;91348.81;;;2.83;89.70
63493;BME280;49638;47.526;10.028;2023-04-20T00:06:17;91325.91;;;2.78;89.93
63493;BME280;49638;47.526;10.028;2023-04-20T00:09:17;91338.13;;;2.91;89.45
63493;BME280;49638;47.526;10.028;2023-04-20T00:12:18;91338.50;;;2.95;89.32
63493;BME280;49638;47.526;10.028;2023-04-20T00:15:18;91335.09;;;2.94;89.32
63493;BME280;49638;47.526;10.028;2023-04-20T00:18:18;91327.69;;;2.91;89.54
63493;BME280;49638;47.526;10.028;2023-04-20T00:21:19;91329.50;;;2.91;89.72
63493;BME280;49638;47.526;10.028;2023-04-20T00:24:23;91321.06;;;2.89;89.75
63493;BME280;49638;47.526;10.028;2023-04-20T00:27:23;91307.06;;;2.76;90.23
63493;BME280;49638;47.526;10.028;2023-04-20T00:30:23;91317.09;;;2.79;90.37
63493;BME280;49638;47.526;10.028;2023-04-20T00:33:23;91301.47;;;2.73;90.18
63493;BME280;49638;47.526;10.028;2023-04-20T00:36:24;91309.69;;;2.76;90.58
63493;BME280;49638;47.526;10.028;2023-04-20T00:39:25;91302.03;;;2.75;90.65
63493;BME280;49638;47.526;10.028;2023-04-20T00:42:26;91291.03;;;2.73;90.91
63493;BME280;49638;47.526;10.028;2023-04-20T00:45:26;91288.19;;;2.74;90.66
63493;BME280;49638;47.526;10.028;2023-04-20T00:48:26;91284.78;;;2.74;90.63
63493;BME280;49638;47.526;10.028;2023-04-20T00:51:27;91291.81;;;2.73;90.67
63493;BME280;49638;47.526;10.028;2023-04-20T00:54:29;91286.22;;;2.70;90.61
63493;BME280;49638;47.526;10.028;2023-04-20T00:57:31;91283.59;;;2.70;91.13
63493;BME280;49638;47.526;10.028;2023-04-20T01:00:32;91276.19;;;2.67;90.50
63493;BME280;49638;47.526;10.028;2023-04-20T01:03:32;91265.38;;;2.56;90.71
63493;BME280;49638;47.526;10.028;2023-04-20T01:06:32;91257.34;;;2.58;90.99
63493;BME280;49638;47.526;10.028;2023-04-20T01:09:33;91255.38;;;2.53;90.64
63493;BME280;49638;47.526;10.028;2023-04-20T01:12:33;91243.38;;;2.46;91.07
63493;BME280;49638;47.526;10.028;2023-04-20T01:15:33;91248.94;;;2.56;90.60
63493;BME280;49638;47.526;10.028;2023-04-20T01:18:41;91236.50;;;2.51;91.16
63493;BME280;49638;47.526;10.028;2023-04-20T01:21:43;91230.50;;;2.51;90.73
63493;BME280;49638;47.526;10.028;2023-04-20T01:24:43;91241.13;;;2.56;90.50
63493;BME280;49638;47.526;10.028;2023-04-20T01:27:44;91244.53;;;2.56;90.99
63493;BME280;49638;47.526;10.028;2023-04-20T01:30:44;91235.28;;;2.60;90.82
63493;BME280;49638;47.526;10.028;2023-04-20T01:33:45;91226.84;;;2.65;90.57
63493;BME280;49638;47.526;10.028;2023-04-20T01:36:45;91226.41;;;2.68;90.29
63493;BME280;49638;47.526;10.028;2023-04-20T01:39:45;91226.84;;;2.65;90.18
63493;BME280;49638;47.526;10.028;2023-04-20T01:42:46;91221.03;;;2.63;90.52
63493;BME280;49638;47.526;10.028;2023-04-20T01:45:46;91208.81;;;2.50;90.69
63493;BME280;49638;47.526;10.028;2023-04-20T01:48:46;91221.69;;;2.52;90.78
63493;BME280;49638;47.526;10.028;2023-04-20T01:51:46;91205.19;;;2.51;90.75
63493;BME280;49638;47.526;10.028;2023-04-20T01:54:47;91200.44;;;2.48;90.92
63493;BME280;49638;47.526;10.028;2023-04-20T01:57:47;91198.19;;;2.52;90.86
63493;BME280;49638;47.526;10.028;2023-04-20T02:00:47;91199.00;;;2.52;90.75
63493;BME280;49638;47.526;10.028;2023-04-20T02:03:48;91206.44;;;2.49;91.05
63493;BME280;49638;47.526;10.028;2023-04-20T02:06:48;91195.41;;;2.47;91.20
63493;BME280;49638;47.526;10.028;2023-04-20T02:09:48;91195.81;;;2.44;91.41
63493;BME280;49638;47.526;10.028;2023-04-20T02:12:49;91186.41;;;2.43;91.39
63493;BME280;49638;47.526;10.028;2023-04-20T02:15:50;91194.22;;;2.43;91.54
63493;BME280;49638;47.526;10.028;2023-04-20T02:18:50;91182.78;;;2.44;91.79
63493;BME280;49638;47.526;10.028;2023-04-20T02:21:50;91185.16;;;2.52;91.55
63493;BME280;49638;47.526;10.028;2023-04-20T02:24:51;91159.94;;;2.39;91.37
63493;BME280;49638;47.526;10.028;2023-04-20T02:27:51;91183.13;;;2.54;91.46
63493;BME280;49638;47.526;10.028;2023-04-20T02:30:51;91181.94;;;2.50;91.59
63493;BME280;49638;47.526;10.028;2023-04-20T02:33:51;91161.94;;;2.37;91.51
63493;BME280;49638;47.526;10.028;2023-04-20T02:36:52;91171.34;;;2.45;91.67
63493;BME280;49638;47.526;10.028;2023-04-20T02:39:52;91170.56;;;2.37;91.89
63493;BME280;49638;47.526;10.028;2023-04-20T02:42:52;91174.75;;;2.45;91.81
63493;BME280;49638;47.526;10.028;2023-04-20T02:45:52;91174.75;;;2.45;91.78
63493;BME280;49638;47.526;10.028;2023-04-20T02:48:53;91166.31;;;2.43;91.87
63493;BME280;49638;47.526;10.028;2023-04-20T02:51:54;91155.28;;;2.41;91.96
63493;BME280;49638;47.526;10.028;2023-04-20T02:54:55;91137.09;;;2.34;92.00
63493;BME280;49638;47.526;10.028;2023-04-20T02:57:55;91160.13;;;2.37;92.09
63493;BME280;49638;47.526;10.028;2023-04-20T03:00:59;91157.16;;;2.27;92.27
63493;BME280;49638;47.526;10.028;2023-04-20T03:04:00;91169.56;;;2.39;92.53
63493;BME280;49638;47.526;10.028;2023-04-20T03:07:00;91157.72;;;2.36;92.75
63493;BME280;49638;47.526;10.028;2023-04-20T03:10:00;91152.28;;;2.44;92.25
63493;BME280;49638;47.526;10.028;2023-04-20T03:13:01;91150.91;;;2.42;92.27
63493;BME280;49638;47.526;10.028;2023-04-20T03:16:01;91100.72;;;2.08;92.12
63493;BME280;49638;47.526;10.028;2023-04-20T03:19:01;91126.06;;;2.32;92.16
63493;BME280;49638;47.526;10.028;2023-04-20T03:22:02;91133.47;;;2.35;92.37
63493;BME280;49638;47.526;10.028;2023-04-20T03:25:02;91125.47;;;2.30;92.61
63493;BME280;49638;47.526;10.028;2023-04-20T03:28:02;91128.25;;;2.35;92.43
63493;BME280;49638;47.526;10.028;2023-04-20T03:31:03;91147.47;;;2.41;92.28
63493;BME280;49638;47.526;10.028;2023-04-20T03:34:05;91138.28;;;2.39;92.42
63493;BME280;49638;47.526;10.028;2023-04-20T03:37:05;91128.63;;;2.39;92.50
63493;BME280;49638;47.526;10.028;2023-04-20T03:40:07;91127.63;;;2.40;92.49
63493;BME280;49638;47.526;10.028;2023-04-20T03:43:08;91117.56;;;2.44;92.23
63493;BME280;49638;47.526;10.028;2023-04-20T03:46:10;91112.97;;;2.46;92.17
63493;BME280;49638;47.526;10.028;2023-04-20T03:49:10;91118.19;;;2.46;92.34
63493;BME280;49638;47.526;10.028;2023-04-20T03:52:11;91105.56;;;2.43;92.27
63493;BME280;49638;47.526;10.028;2023-04-20T03:55:11;91115.38;;;2.41;92.30
63493;BME280;49638;47.526;10.028;2023-04-20T03:58:11;91106.97;;;2.39;92.61
63493;BME280;49638;47.526;10.028;2023-04-20T04:01:12;91100.53;;;2.41;92.83
63493;BME280;49638;47.526;10.028;2023-04-20T04:04:12;91103.13;;;2.41;92.93
63493;BME280;49638;47.526;10.028;2023-04-20T04:07:12;91098.75;;;2.42;92.79
63493;BME280;49638;47.526;10.028;2023-04-20T04:10:12;91090.53;;;2.38;92.71
63493;BME280;49638;47.526;10.028;2023-04-20T04:13:13;91062.53;;;2.20;92.75
63493;BME280;49638;47.526;10.028;2023-04-20T04:16:13;91078.34;;;2.32;92.92
63493;BME280;49638;47.526;10.028;2023-04-20T04:19:13;91061.56;;;2.21;93.08
63493;BME280;49638;47.526;10.028;2023-04-20T04:22:14;91074.97;;;2.25;92.88
63493;BME280;49638;47.526;10.028;2023-04-20T04:25:14;91078.38;;;2.25;93.33
63493;BME280;49638;47.526;10.028;2023-04-20T04:28:14;91071.34;;;2.26;93.38
63493;BME280;49638;47.526;10.028;2023-04-20T04:31:16;91082.75;;;2.31;93.22
63493;BME280;49638;47.526;10.028;2023-04-20T04:34:18;91065.34;;;2.25;93.50
63493;BME280;49638;47.526;10.028;2023-04-20T04:37:19;91073.09;;;2.39;93.03
63493;BME280;49638;47.526;10.028;2023-04-20T04:40:19;91063.69;;;2.31;93.21
63493;BME280;49638;47.526;10.028;2023-04-20T04:43:19;91073.66;;;2.41;92.96
63493;BME280;49638;47.526;10.028;2023-04-20T04:46:20;91073.47;;;2.42;92.58
63493;BME280;49638;47.526;10.028;2023-04-20T04:49:21;91066.69;;;2.34;92.56
63493;BME280;49638;47.526;10.028;2023-04-20T04:52:23;91065.25;;;2.39;92.70
63493;BME280;49638;47.526;10.028;2023-04-20T04:55:23;91060.28;;;2.30;92.71
63493;BME280;49638;47.526;10.028;2023-04-20T04:58:23;91056.53;;;2.20;92.75
63493;BME280;49638;47.526;10.028;2023-04-20T05:01:24;91074.59;;;2.21;93.01
63493;BME280;49638;47.526;10.028;2023-04-20T05:04:24;91060.59;;;2.09;93.06
63493;BME280;49638;47.526;10.028;2023-04-20T05:07:24;91073.88;;;2.01;92.90
63493;BME280;49638;47.526;10.028;2023-04-20T05:10:25;91065.91;;;1.89;93.89
63493;BME280;49638;47.526;10.028;2023-04-20T05:13:25;91057.34;;;1.75;93.46
63493;BME280;49638;47.526;10.028;2023-04-20T05:16:25;91078.75;;;1.84;93.56
63493;BME280;49638;47.526;10.028;2023-04-20T05:19:26;91077.16;;;1.83;93.60
63493;BME280;49638;47.526;10.028;2023-04-20T05:22:26;91077.75;;;1.85;93.62
63493;BME280;49638;47.526;10.028;2023-04-20T05:25:26;91074.75;;;1.81;93.74
63493;BME280;49638;47.526;10.028;2023-04-20T05:28:26;91068.16;;;1.79;93.90
63493;BME280;49638;47.526;10.028;2023-04-20T05:31:27;91065.94;;;1.82;93.86
63493;BME280;49638;47.526;10.028;2023-04-20T05:34:28;91068.53;;;1.82;93.89
63493;BME280;49638;47.526;10.028;2023-04-20T05:37:28;91055.53;;;1.76;93.84
63493;BME280;49638;47.526;10.028;2023-04-20T05:40:28;91059.91;;;1.82;93.49
63493;BME280;49638;47.526;10.028;2023-04-20T05:43:28;91068.34;;;1.84;93.42
63493;BME280;49638;47.526;10.028;2023-04-20T05:46:29;91066.34;;;1.79;93.48
63493;BME280;49638;47.526;10.028;2023-04-20T05:49:29;91060.56;;;1.77;93.63
63493;BME280;49638;47.526;10.028;2023-04-20T05:52:30;91069.53;;;1.81;93.92
63493;BME280;49638;47.526;10.028;2023-04-20T05:55:30;91072.34;;;1.80;93.85
63493;BME280;49638;47.526;10.028;2023-04-20T05:58:31;91087.16;;;1.86;93.84
63493;BME280;49638;47.526;10.028;2023-04-20T06:01:32;91092.75;;;1.89;93.89
63493;BME280;49638;47.526;10.028;2023-04-20T06:04:32;91086.31;;;1.99;93.36
63493;BME280;49638;47.526;10.028;2023-04-20T06:07:32;91091.09;;;2.02;93.22
63493;BME280;49638;47.526;10.028;2023-04-20T06:10:33;91084.09;;;2.02;93.59
63493;BME280;49638;47.526;10.028;2023-04-20T06:13:33;91093.09;;;2.06;93.62
63493;BME280;49638;47.526;10.028;2023-04-20T06:16:33;91087.88;;;2.06;93.48
63493;BME280;49638;47.526;10.028;2023-04-20T06:19:34;91082.88;;;2.05;93.60
63493;BME280;49638;47.526;10.028;2023-04-20T06:22:35;91086.88;;;2.07;93.63
63493;BME280;49638;47.526;10.028;2023-04-20T06:25:35;91086.28;;;2.05;93.66
63493;BME280;49638;47.526;10.028;2023-04-20T06:28:36;91080.69;;;2.02;93.60
63493;BME280;49638;47.526;10.028;2023-04-20T06:31:36;91098.69;;;2.10;94.04
63493;BME280;49638;47.526;10.028;2023-04-20T06:34:37;91081.88;;;2.06;93.45
63493;BME280;49638;47.526;10.028;2023-04-20T06:37:37;91077.63;;;2.11;93.39
63493;BME280;49638;47.526;10.028;2023-04-20T06:40:37;91093.00;;;2.26;93.30
63493;BME280;49638;47.526;10.028;2023-04-20T06:43:38;91078.59;;;2.17;93.27
63493;BME280;49638;47.526;10.028;2023-04-20T06:46:38;91100.03;;;2.26;93.50
63493;BME280;49638;47.526;10.028;2023-04-20T06:49:38;91095.78;;;2.31;93.36
63493;BME280;49638;47.526;10.028;2023-04-20T06:52:39;91088.75;;;2.32;93.44
63493;BME280;49638;47.526;10.028;2023-04-20T06:55:40;91082.72;;;2.38;93.66
63493;BME280;49638;47.526;10.028;2023-04-20T06:58:40;91079.66;;;2.41;93.37
63493;BME280;49638;47.526;10.028;2023-04-20T07:01:40;91068.81;;;2.44;93.04
63493;BME280;49638;47.526;10.028;2023-04-20T07:04:40;91068.41;;;2.47;93.42
63493;BME280;49638;47.526;10.028;2023-04-20T07:07:41;91073.41;;;2.49;93.62
63493;BME280;49638;47.526;10.028;2023-04-20T07:10:42;91085.13;;;2.65;93.53
63493;BME280;49638;47.526;10.028;2023-04-20T07:13:42;91074.84;;;2.76;93.37
63493;BME280;49638;47.526;10.028;2023-04-20T07:16:42;91071.75;;;2.86;93.15
63493;BME280;49638;47.526;10.028;2023-04-20T07:19:42;91058.47;;;2.88;92.80
63493;BME280;49638;47.526;10.028;2023-04-20T07:22:43;91071.38;;;3.07;93.22
63493;BME280;49638;47.526;10.028;2023-04-20T07:25:43;91061.00;;;3.19;92.68
63493;BME280;49638;47.526;10.028;2023-04-20T07:28:43;91064.44;;;3.20;92.64
63493;BME280;49638;47.526;10.028;2023-04-20T07:31:43;91070.19;;;3.28;92.86
63493;BME280;49638;47.526;10.028;2023-04-20T07:34:44;91068.66;;;3.39;92.43
63493;BME280;49638;47.526;10.028;2023-04-20T07:37:44;91062.75;;;3.50;92.32
63493;BME280;49638;47.526;10.028;2023-04-20T07:40:44;91046.84;;;3.52;92.46
63493;BME280;49638;47.526;10.028;2023-04-20T07:43:45;91062.56;;;3.70;92.22
63493;BME280;49638;47.526;10.028;2023-04-20T07:46:45;91054.03;;;3.75;92.59
63493;BME280;49638;47.526;10.028;2023-04-20T07:49:45;91057.03;;;3.78;91.87
63493;BME280;49638;47.526;10.028;2023-04-20T07:52:45;91069.41;;;3.83;92.23
63493;BME280;49638;47.526;10.028;2023-04-20T07:55:46;91061.44;;;3.96;92.22
63493;BME280;49638;47.526;10.028;2023-04-20T07:58:46;91050.91;;;4.03;92.08
63493;BME280;49638;47.526;10.028;2023-04-20T08:01:46;91039.41;;;4.04;92.07
63493;BME280;49638;47.526;10.028;2023-04-20T08:04:47;91040.94;;;4.12;91.77
63493;BME280;49638;47.526;10.028;2023-04-20T08:07:48;91049.97;;;4.27;91.66
63493;BME280;49638;47.526;10.028;2023-04-20T08:10:48;91042.28;;;4.33;91.74
63493;BME280;49638;47.526;10.028;2023-04-20T08:13:49;91034.69;;;4.43;91.68
63493;BME280;49638;47.526;10.028;2023-04-20T08:16:49;91030.41;;;4.48;91.78
63493;BME280;49638;47.526;10.028;2023-04-20T08:19:49;91036.69;;;4.59;91.78
63493;BME280;49638;47.526;10.028;2023-04-20T08:22:50;91040.09;;;4.71;91.51
63493;BME280;49638;47.526;10.028;2023-04-20T08:25:50;91030.03;;;4.87;91.25
63493;BME280;49638;47.526;10.028;2023-04-20T08:28:50;91024.44;;;4.95;90.67
63493;BME280;49638;47.526;10.028;2023-04-20T08:31:50;91022.75;;;5.01;91.19
63493;BME280;49638;47.526;10.028;2023-04-20T08:34:54;91020.03;;;5.07;91.03
63493;BME280;49638;47.526;10.028;2023-04-20T08:37:55;91016.38;;;5.20;90.98
63493;BME280;49638;47.526;10.028;2023-04-20T08:40:55;91022.97;;;5.22;90.93
63493;BME280;49638;47.526;10.028;2023-04-20T08:43:55;91016.72;;;5.35;90.71
63493;BME280;49638;47.526;10.028;2023-04-20T08:46:56;91009.41;;;5.49;90.33
63493;BME280;49638;47.526;10.028;2023-04-20T08:49:58;91011.81;;;5.51;90.60
63493;BME280;49638;47.526;10.028;2023-04-20T08:52:59;91012.94;;;5.43;90.13
63493;BME280;49638;47.526;10.028;2023-04-20T08:56:00;91004.09;;;5.20;89.80
63493;BME280;49638;47.526;10.028;2023-04-20T08:59:01;91003.28;;;5.20;89.97
63493;BME280;49638;47.526;10.028;2023-04-20T09:02:09;90997.00;;;5.09;89.91
63493;BME280;49638;47.526;10.028;2023-04-20T09:05:10;90985.72;;;5.09;89.84
63493;BME280;49638;47.526;10.028;2023-04-20T09:08:10;91020.34;;;5.22;89.94
63493;BME280;49638;47.526;10.028;2023-04-20T09:11:27;91015.22;;;5.04;88.11
63493;BME280;49638;47.526;10.028;2023-04-20T09:14:28;91033.09;;;4.95;89.56
63493;BME280;49638;47.526;10.028;2023-04-20T09:17:35;91043.09;;;4.87;89.63
63493;BME280;49638;47.526;10.028;2023-04-20T09:20:36;91030.13;;;4.80;89.74
63493;BME280;49638;47.526;10.028;2023-04-20T09:23:36;91033.78;;;4.79;89.91
63493;BME280;49638;47.526;10.028;2023-04-20T09:26:37;91033.97;;;4.78;89.64
63493;BME280;49638;47.526;10.028;2023-04-20T09:29:37;91034.56;;;4.80;89.90
63493;BME280;49638;47.526;10.028;2023-04-20T09:32:37;91033.41;;;4.76;89.59
63493;BME280;49638;47.526;10.028;2023-04-20T09:35:37;91039.09;;;4.72;89.89
63493;BME280;49638;47.526;10.028;2023-04-20T09:38:39;91038.06;;;4.73;89.92
63493;BME280;49638;47.526;10.028;2023-04-20T09:41:40;91042.16;;;4.69;90.02
63493;BME280;49638;47.526;10.028;2023-04-20T09:44:42;91044.19;;;4.67;90.28
63493;BME280;49638;47.526;10.028;2023-04-20T09:47:42;91046.38;;;4.70;90.50
63493;BME280;49638;47.526;10.028;2023-04-20T09:50:43;91043.91;;;4.76;90.18
63493;BME280;49638;47.526;10.028;2023-04-20T09:53:44;91033.41;;;4.76;89.99
63493;BME280;49638;47.526;10.028;2023-04-20T09:56:45;91028.03;;;4.70;89.97
63493;BME280;49638;47.526;10.028;2023-04-20T09:59:46;91032.25;;;4.71;89.79
63493;BME280;49638;47.526;10.028;2023-04-20T10:02:46;91045.38;;;4.83;90.25
63493;BME280;49638;47.526;10.028;2023-04-20T10:05:47;91029.19;;;4.74;90.31
63493;BME280;49638;47.526;10.028;2023-04-20T10:08:48;91042.06;;;4.88;90.29
63493;BME280;49638;47.526;10.028;2023-04-20T10:11:49;91039.91;;;4.85;90.45
63493;BME280;49638;47.526;10.028;2023-04-20T10:14:54;91035.69;;;4.84;90.52
63493;BME280;49638;47.526;10.028;2023-04-20T10:17:56;91040.50;;;4.87;90.84
63493;BME280;49638;47.526;10.028;2023-04-20T10:21:04;91038.78;;;4.92;90.50
63493;BME280;49638;47.526;10.028;2023-04-20T10:24:05;91033.91;;;4.96;90.51
63493;BME280;49638;47.526;10.028;2023-04-20T10:27:19;91041.19;;;4.94;90.40
63493;BME280;49638;47.526;10.028;2023-04-20T10:30:21;91021.47;;;4.91;90.33
63493;BME280;49638;47.526;10.028;2023-04-20T10:33:22;91017.41;;;5.07;89.67
63493;BME280;49638;47.526;10.028;2023-04-20T10:36:25;91020.72;;;5.14;89.52
63493;BME280;49638;47.526;10.028;2023-04-20T10:39:26;91004.41;;;5.12;89.82
63493;BME280;49638;47.526;10.028;2023-04-20T10:42:41;91013.31;;;5.11;89.61
63493;BME280;49638;47.526;10.028;2023-04-20T10:45:41;91003.38;;;5.02;89.89
63493;BME280;49638;47.526;10.028;2023-04-20T10:48:54;91015.91;;;5.11;89.58
63493;BME280;49638;47.526;10.028;2023-04-20T10:51:55;91014.78;;;5.07;89.75
63493;BME280;49638;47.526;10.028;2023-04-20T10:54:55;90989.41;;;4.96;89.61
63493;BME280;49638;47.526;10.028;2023-04-20T10:57:56;90988.13;;;5.10;89.53
63493;BME280;49638;47.526;10.028;2023-04-20T11:00:59;90986.88;;;5.13;89.27
63493;BME280;49638;47.526;10.028;2023-04-20T11:03:59;90990.06;;;5.27;89.63
63493;BME280;49638;47.526;10.028;2023-04-20T11:07:07;90981.63;;;5.36;89.58
63493;BME280;49638;47.526;10.028;2023-04-20T11:10:12;90984.44;;;5.46;89.84
63493;BME280;49638;47.526;10.028;2023-04-20T11:13:20;90978.41;;;5.58;89.24
63493;BME280;49638;47.526;10.028;2023-04-20T11:16:21;90977.34;;;5.70;89.36
63493;BME280;49638;47.526;10.028;2023-04-20T11:19:26;90962.09;;;5.67;89.61
63493;BME280;49638;47.526;10.028;2023-04-20T11:22:27;90975.63;;;5.76;89.50
63493;BME280;49638;47.526;10.028;2023-04-20T11:25:27;90958.44;;;5.68;89.40
63493;BME280;49638;47.526;10.028;2023-04-20T11:28:27;90973.59;;;5.78;89.22
63493;BME280;49638;47.526;10.028;2023-04-20T11:31:33;90973.00;;;5.76;89.07
63493;BME280;49638;47.526;10.028;2023-04-20T11:34:36;90963.69;;;5.68;89.14
63493;BME280;49638;47.526;10.028;2023-04-20T11:37:47;90961.97;;;5.74;88.50
63493;BME280;49638;47.526;10.028;2023-04-20T11:40:50;90961.06;;;5.68;88.95
63493;BME280;49638;47.526;10.028;2023-04-20T11:43:50;90971.63;;;5.74;89.15
63493;BME280;49638;47.526;10.028;2023-04-20T11:46:51;90974.50;;;5.72;89.07
63493;BME280;49638;47.526;10.028;2023-04-20T11:49:56;90974.97;;;5.69;89.10
63493;BME280;49638;47.526;10.028;2023-04-20T11:52:56;90975.09;;;5.62;89.27
63493;BME280;49638;47.526;10.028;2023-04-20T11:55:57;90970.56;;;5.58;89.32
63493;BME280;49638;47.526;10.028;2023-04-20T11:58:57;90956.66;;;5.45;89.50
63493;BME280;49638;47.526;10.028;2023-04-20T12:01:57;90966.44;;;5.50;89.23
63493;BME280;49638;47.526;10.028;2023-04-20T12:05:00;90954.38;;;5.49;89.65
63493;BME280;49638;47.526;10.028;2023-04-20T12:08:01;90943.91;;;5.49;89.81
63493;BME280;49638;47.526;10.028;2023-04-20T12:11:01;90964.72;;;5.56;89.86
63493;BME280;49638;47.526;10.028;2023-04-20T12:14:01;90953.47;;;5.55;89.52
63493;BME280;49638;47.526;10.028;2023-04-20T12:17:03;90971.22;;;5.65;89.42
63493;BME280;49638;47.526;10.028;2023-04-20T12:20:04;90974.63;;;5.65;89.59
63493;BME280;49638;47.526;10.028;2023-04-20T12:23:08;90967.94;;;5.58;89.35
63493;BME280;49638;47.526;10.028;2023-04-20T12:26:08;90980.34;;;5.62;89.40
63493;BME280;49638;47.526;10.028;2023-04-20T12:29:09;90988.78;;;5.64;89.80
63493;BME280;49638;47.526;10.028;2023-04-20T12:32:09;90981.78;;;5.70;89.49
63493;BME280;49638;47.526;10.028;2023-04-20T12:35:10;90973.34;;;5.80;89.33
63493;BME280;49638;47.526;10.028;2023-04-20T12:38:10;90976.50;;;5.93;89.32
63493;BME280;49638;47.526;10.028;2023-04-20T12:41:13;90972.75;;;6.01;89.83
63493;BME280;49638;47.526;10.028;2023-04-20T12:44:14;90975.22;;;6.08;89.68
63493;BME280;49638;47.526;10.028;2023-04-20T12:47:15;90961.31;;;6.07;89.77
63493;BME280;49638;47.526;10.028;2023-04-20T12:50:15;90973.13;;;6.22;90.04
63493;BME280;49638;47.526;10.028;2023-04-20T12:53:15;90973.91;;;6.22;89.31
63493;BME280;49638;47.526;10.028;2023-04-20T12:56:16;90965.06;;;6.11;89.59
63493;BME280;49638;47.526;10.028;2023-04-20T12:59:16;90983.97;;;6.13;89.93
63493;BME280;49638;47.526;10.028;2023-04-20T13:02:16;90983.25;;;6.01;89.67
63493;BME280;49638;47.526;10.028;2023-04-20T13:05:17;90997.38;;;6.00;90.14
63493;BME280;49638;47.526;10.028;2023-04-20T13:08:17;90983.00;;;5.91;89.94
63493;BME280;49638;47.526;10.028;2023-04-20T13:11:18;91002.06;;;5.98;90.20
63493;BME280;49638;47.526;10.028;2023-04-20T13:14:19;91008.56;;;5.96;90.29
63493;BME280;49638;47.526;10.028;2023-04-20T13:17:19;91015.75;;;5.88;90.18
63493;BME280;49638;47.526;10.028;2023-04-20T13:20:20;91022.00;;;5.87;90.05
63493;BME280;49638;47.526;10.028;2023-04-20T13:23:20;91012.66;;;5.80;89.97
63493;BME280;49638;47.526;10.028;2023-04-20T13:26:20;91014.50;;;5.79;90.31
63493;BME280;49638;47.526;10.028;2023-04-20T13:29:24;91010.38;;;5.83;90.25
63493;BME280;49638;47.526;10.028;2023-04-20T13:32:25;91014.38;;;5.86;89.55
63493;BME280;49638;47.526;10.028;2023-04-20T13:35:25;91014.59;;;5.96;89.33
63493;BME280;49638;47.526;10.028;2023-04-20T13:38:25;91009.56;;;6.06;89.06
63493;BME280;49638;47.526;10.028;2023-04-20T13:41:26;90995.72;;;6.11;89.34
63493;BME280;49638;47.526;10.028;2023-04-20T13:44:26;90998.19;;;6.29;90.26
63493;BME280;49638;47.526;10.028;2023-04-20T13:47:26;91022.31;;;6.43;90.72
63493;BME280;49638;47.526;10.028;2023-04-20T13:50:27;91027.56;;;6.43;90.36
63493;BME280;49638;47.526;10.028;2023-04-20T13:53:27;91025.28;;;6.47;90.34
63493;BME280;49638;47.526;10.028;2023-04-20T13:56:27;91030.28;;;6.48;90.67
63493;BME280;49638;47.526;10.028;2023-04-20T13:59:27;91014.06;;;6.51;90.45
63493;BME280;49638;47.526;10.028;2023-04-20T14:02:28;91014.94;;;6.57;90.29
63493;BME280;49638;47.526;10.028;2023-04-20T14:05:29;91011.13;;;6.64;90.36
63493;BME280;49638;47.526;10.028;2023-04-20T14:08:29;91021.34;;;6.78;90.47
63493;BME280;49638;47.526;10.028;2023-04-20T14:11:29;91023.50;;;6.81;90.17
63493;BME280;49638;47.526;10.028;2023-04-20T14:14:30;91006.78;;;6.70;90.05
63493;BME280;49638;47.526;10.028;2023-04-20T14:17:30;91022.38;;;6.77;90.28
63493;BME280;49638;47.526;10.028;2023-04-20T14:20:30;91006.94;;;6.63;90.20
63493;BME280;49638;47.526;10.028;2023-04-20T14:23:31;91005.34;;;6.62;89.69
63493;BME280;49638;47.526;10.028;2023-04-20T14:26:31;91013.69;;;6.59;89.26
63493;BME280;49638;47.526;10.028;2023-04-20T14:29:31;91034.13;;;6.57;89.42
63493;BME280;49638;47.526;10.028;2023-04-20T14:32:33;91030.69;;;6.57;89.36
63493;BME280;49638;47.526;10.028;2023-04-20T14:35:33;91028.53;;;6.54;89.42
63493;BME280;49638;47.526;10.028;2023-04-20T14:38:34;91028.22;;;6.50;89.53
63493;BME280;49638;47.526;10.028;2023-04-20T14:41:34;91029.72;;;6.46;89.53
63493;BME280;49638;47.526;10.028;2023-04-20T14:44:34;91033.28;;;6.40;90.07
63493;BME280;49638;47.526;10.028;2023-04-20T14:47:35;91037.88;;;6.33;90.20
63493;BME280;49638;47.526;10.028;2023-04-20T14:50:35;91029.47;;;6.19;90.17
63493;BME280;49638;47.526;10.028;2023-04-20T14:53:36;91040.97;;;6.18;90.41
63493;BME280;49638;47.526;10.028;2023-04-20T14:56:36;91030.53;;;6.06;90.43
63493;BME280;49638;47.526;10.028;2023-04-20T14:59:36;91032.47;;;6.11;90.48
63493;BME280;49638;47.526;10.028;2023-04-20T15:02:36;91013.03;;;5.95;90.73
63493;BME280;49638;47.526;10.028;2023-04-20T15:05:37;91031.34;;;6.07;90.73
63493;BME280;49638;47.526;10.028;2023-04-20T15:08:37;91018.34;;;6.00;91.11
63493;BME280;49638;47.526;10.028;2023-04-20T15:11:38;91023.94;;;6.04;91.00
63493;BME280;49638;47.526;10.028;2023-04-20T15:14:38;91032.03;;;6.02;91.14
63493;BME280;49638;47.526;10.028;2023-04-20T15:17:38;91035.91;;;6.00;91.50
63493;BME280;49638;47.526;10.028;2023-04-20T15:20:39;91035.59;;;5.96;91.66
63493;BME280;49638;47.526;10.028;2023-04-20T15:23:39;91031.38;;;5.95;91.50
63493;BME280;49638;47.526;10.028;2023-04-20T15:26:40;91039.25;;;5.95;91.45
63493;BME280;49638;47.526;10.028;2023-04-20T15:29:40;91034.44;;;5.92;91.91
63493;BME280;49638;47.526;10.028;2023-04-20T15:32:40;91038.75;;;5.86;91.75
63493;BME280;49638;47.526;10.028;2023-04-20T15:35:41;91035.94;;;5.88;92.12
63493;BME280;49638;47.526;10.028;2023-04-20T15:38:41;91039.09;;;5.90;92.14
63493;BME280;49638;47.526;10.028;2023-04-20T15:41:41;91040.59;;;5.86;92.23
63493;BME280;49638;47.526;10.028;2023-04-20T15:44:42;91044.47;;;5.83;92.59
63493;BME280;49638;47.526;10.028;2023-04-20T15:47:42;91052.00;;;5.80;92.84
63493;BME280;49638;47.526;10.028;2023-04-20T15:50:43;91040.25;;;5.70;93.36
63493;BME280;49638;47.526;10.028;2023-04-20T15:53:43;91052.69;;;5.75;93.73
63493;BME280;49638;47.526;10.028;2023-04-20T15:56:47;91042.44;;;5.62;93.57